Portada
METAR-TAF:

METAR-TAF

Aeroports :

Aeroport de París-Orly

París-Orly, França

latitud: 48-44N, longitud: 002-24E, altitud: 89 m

Observació

L'informe es va fer fa 35 minuts, a les 10:30 UTC
Vent 3 kt amb direcció variable
Temperatura 26°C
Humitat 39%
Pressió 1015 hPa
Visibilitat 10 km o més
sense núvols per sota de 1500 mi sense presència de cumulonimbus.

METAR: LFPO 171030Z VRB03KT CAVOK 26/11 Q1015 NOSIG

Hora: 13:05 (11:05 UTC)

Pronòstic

L'informe es va fer fa 6 hores i 5 minuts, a les 05:00 UTC
Pronòstic vàlid del 17 a les 06 UTC al 18 a les 12 UTC
Vent 3 kt amb direcció variable
Visibilitat 10 km o més
sense núvols per sota de 1500 mi sense presència de cumulonimbus.
Evolucionant progressivament
l' 17 a les 15 UTC al 17 a les 17 UTC
Vent 6 kt del Oest

TAF: LFPO 170500Z 1706/1812 VRB03KT CAVOK BECMG 1715/1717 28006KT

Observacions i pronòstics meteorològics de més de 4000 aeroports (METAR i TAF).

Les estacions disponibles són els punts grocs i vermells al mapa.

Posi el ratolí al punt desitjat per veure el nom de l'estació.

Feu clic per veure les observacions i els pronòstics meteorològics.

Per canviar el mapa: feu clic els botons verds amb una creu de color negre per apropar; al botó verd amb un guió per allunyar la imatge; o en les fletxes verdes per a mapes adjacents.


METAR-TAF: